createdAt,value
2023-05-25T00:00:27.820Z,14.30
2023-05-25T00:02:55.330Z,14.30
2023-05-25T00:05:22.198Z,14.40
2023-05-25T00:07:48.970Z,14.30
2023-05-25T00:10:15.766Z,14.30
2023-05-25T00:12:42.622Z,14.50
2023-05-25T00:15:09.951Z,14.30
2023-05-25T00:17:37.416Z,14.30
2023-05-25T00:20:07.738Z,14.10
2023-05-25T00:22:37.726Z,14.30
2023-05-25T00:25:06.339Z,14.00
2023-05-25T00:27:33.190Z,14.10
2023-05-25T00:30:00.045Z,13.90
2023-05-25T00:32:26.885Z,14.20
2023-05-25T00:34:54.890Z,14.10
2023-05-25T00:37:21.875Z,14.30
2023-05-25T00:39:48.769Z,14.10
2023-05-25T00:42:16.372Z,14.40
2023-05-25T00:44:43.419Z,14.20
2023-05-25T00:47:11.852Z,14.20
2023-05-25T00:49:38.927Z,14.10
2023-05-25T00:52:06.253Z,14.10
2023-05-25T00:54:35.237Z,14.30
2023-05-25T00:57:06.664Z,14.20
2023-05-25T00:59:41.516Z,14.10
2023-05-25T01:02:10.986Z,13.80
2023-05-25T01:04:49.563Z,14.20
2023-05-25T01:07:23.447Z,13.90
2023-05-25T01:09:58.434Z,13.90
2023-05-25T01:12:28.954Z,14.10
2023-05-25T01:14:56.794Z,14.30
2023-05-25T01:17:23.584Z,14.10
2023-05-25T01:20:08.328Z,14.30
2023-05-25T01:22:45.463Z,13.80
2023-05-25T01:25:22.325Z,13.90
2023-05-25T01:27:57.132Z,13.80
2023-05-25T01:30:27.380Z,13.80
2023-05-25T01:32:55.389Z,13.60
2023-05-25T01:35:24.598Z,13.70
2023-05-25T01:37:52.457Z,13.70
2023-05-25T01:40:19.347Z,13.80
2023-05-25T01:42:46.165Z,13.60
2023-05-25T01:45:14.528Z,13.80
2023-05-25T01:47:54.084Z,13.60
2023-05-25T01:50:48.738Z,13.60
2023-05-25T01:53:21.364Z,13.50
2023-05-25T01:55:54.937Z,13.60
2023-05-25T01:58:24.372Z,13.60
2023-05-25T02:00:51.703Z,13.50
2023-05-25T02:03:20.142Z,13.30
2023-05-25T02:05:47.802Z,13.40
2023-05-25T02:08:14.685Z,13.40
2023-05-25T02:10:41.526Z,13.20
2023-05-25T02:13:08.414Z,13.20
2023-05-25T02:15:35.293Z,13.20
2023-05-25T02:18:03.123Z,13.20
2023-05-25T02:20:30.089Z,13.70
2023-05-25T02:22:56.929Z,13.60
2023-05-25T02:25:23.758Z,13.70
2023-05-25T02:27:50.956Z,13.40
2023-05-25T02:30:17.766Z,13.70
2023-05-25T02:32:44.826Z,13.30
2023-05-25T02:35:11.804Z,13.60
2023-05-25T02:37:39.239Z,13.40
2023-05-25T02:40:06.530Z,13.30
2023-05-25T02:42:33.307Z,13.30
2023-05-25T02:45:00.149Z,13.20
2023-05-25T02:47:27.014Z,13.20
2023-05-25T02:49:53.909Z,13.20
2023-05-25T02:52:21.306Z,13.20
2023-05-25T02:54:48.073Z,13.00
2023-05-25T02:57:14.883Z,13.10
2023-05-25T02:59:41.782Z,13.00
2023-05-25T03:02:08.525Z,13.10
2023-05-25T03:04:38.014Z,13.30
2023-05-25T03:07:05.393Z,13.20
2023-05-25T03:09:32.294Z,12.90
2023-05-25T03:11:59.125Z,12.80
2023-05-25T03:14:26.067Z,13.20
2023-05-25T03:16:54.160Z,13.10
2023-05-25T03:19:21.487Z,13.00
2023-05-25T03:21:48.329Z,12.80
2023-05-25T03:24:15.324Z,12.80
2023-05-25T03:26:42.129Z,12.80
2023-05-25T03:29:09.004Z,12.80
2023-05-25T03:31:36.391Z,12.70
2023-05-25T03:34:04.129Z,12.70
2023-05-25T03:36:32.423Z,12.70
2023-05-25T03:38:59.319Z,12.80
2023-05-25T03:41:27.053Z,12.70
2023-05-25T03:43:54.094Z,12.60
2023-05-25T03:46:21.024Z,12.50
2023-05-25T03:48:47.897Z,12.70
2023-05-25T03:51:14.657Z,12.70
2023-05-25T03:53:41.504Z,12.50
2023-05-25T03:56:08.332Z,12.40
2023-05-25T03:58:35.118Z,12.70
2023-05-25T04:01:04.361Z,12.50
2023-05-25T04:03:33.089Z,12.80
2023-05-25T04:06:00.691Z,12.50
2023-05-25T04:08:28.990Z,12.60
2023-05-25T04:10:56.533Z,12.40
2023-05-25T04:13:23.301Z,12.50
2023-05-25T04:15:51.398Z,12.70
2023-05-25T04:18:19.156Z,12.60
2023-05-25T04:20:46.759Z,12.70
2023-05-25T04:23:13.578Z,12.60
2023-05-25T04:25:42.166Z,12.80
2023-05-25T04:28:10.270Z,12.80
2023-05-25T04:30:37.146Z,12.60
2023-05-25T04:33:04.182Z,12.60
2023-05-25T04:35:32.053Z,12.50
2023-05-25T04:38:02.708Z,12.70
2023-05-25T04:40:30.156Z,12.60
2023-05-25T04:42:57.138Z,12.50
2023-05-25T04:45:24.040Z,12.70
2023-05-25T04:47:51.172Z,12.80
2023-05-25T04:50:18.193Z,12.60
2023-05-25T04:52:45.011Z,12.70
2023-05-25T04:55:12.486Z,12.70
2023-05-25T04:57:39.435Z,12.70
2023-05-25T05:00:09.732Z,12.80
2023-05-25T05:02:36.645Z,12.80
2023-05-25T05:05:03.898Z,12.50
2023-05-25T05:07:31.745Z,12.60
2023-05-25T05:09:58.748Z,12.60
2023-05-25T05:12:25.684Z,12.90
2023-05-25T05:14:53.175Z,13.20
2023-05-25T05:17:19.997Z,13.10
2023-05-25T05:19:46.833Z,12.80
2023-05-25T05:22:15.878Z,12.80
2023-05-25T05:24:42.859Z,12.90
2023-05-25T05:27:10.680Z,13.10
2023-05-25T05:29:37.538Z,13.20
2023-05-25T05:32:04.609Z,13.40
2023-05-25T05:34:31.554Z,13.30
2023-05-25T05:37:00.089Z,13.50
2023-05-25T05:39:27.855Z,13.50
2023-05-25T05:41:55.468Z,13.50
2023-05-25T05:44:24.639Z,13.20
2023-05-25T05:46:53.132Z,13.50
2023-05-25T05:49:20.023Z,13.40
2023-05-25T05:51:46.875Z,13.40
2023-05-25T05:54:13.668Z,13.60
2023-05-25T05:56:40.473Z,13.70
2023-05-25T05:59:07.330Z,13.80
2023-05-25T06:01:34.227Z,13.40
2023-05-25T06:04:01.054Z,13.60
2023-05-25T06:06:28.590Z,13.70
2023-05-25T06:08:55.560Z,13.70
2023-05-25T06:11:22.365Z,13.80
2023-05-25T06:13:49.147Z,14.20
2023-05-25T06:16:16.241Z,14.30
2023-05-25T06:18:43.054Z,14.40
2023-05-25T06:21:10.782Z,14.50
2023-05-25T06:23:38.806Z,14.40
2023-05-25T06:26:07.473Z,14.20
2023-05-25T06:28:34.410Z,14.10
2023-05-25T06:31:01.229Z,14.30
2023-05-25T06:33:28.002Z,14.50
2023-05-25T06:35:58.589Z,14.60
2023-05-25T06:38:25.413Z,14.60
2023-05-25T06:40:52.281Z,14.60
2023-05-25T06:43:19.206Z,14.50
2023-05-25T06:45:46.418Z,14.60
2023-05-25T06:48:13.554Z,14.80
2023-05-25T06:50:40.408Z,14.80
2023-05-25T06:53:07.257Z,14.60
2023-05-25T06:55:34.125Z,14.50
2023-05-25T06:58:00.878Z,14.80
2023-05-25T07:00:27.725Z,14.40
2023-05-25T07:02:54.569Z,14.70
2023-05-25T07:05:21.965Z,14.90
2023-05-25T07:07:48.935Z,15.20
2023-05-25T07:10:15.771Z,15.20
2023-05-25T07:12:42.627Z,15.30
2023-05-25T07:15:10.440Z,15.40
2023-05-25T07:17:37.388Z,15.40
2023-05-25T07:20:06.364Z,15.30
2023-05-25T07:22:33.328Z,15.30
2023-05-25T07:25:00.265Z,15.20
2023-05-25T07:27:27.081Z,15.30
2023-05-25T07:29:53.900Z,15.60
2023-05-25T07:32:21.005Z,15.70
2023-05-25T07:34:47.868Z,15.60
2023-05-25T07:37:14.694Z,15.50
2023-05-25T07:39:41.584Z,15.50
2023-05-25T07:42:08.423Z,15.50
2023-05-25T07:44:35.286Z,15.70
2023-05-25T07:47:02.192Z,15.80
2023-05-25T07:49:29.000Z,15.80
2023-05-25T07:51:55.890Z,16.00
2023-05-25T07:54:22.716Z,16.00
2023-05-25T07:56:49.650Z,15.80
2023-05-25T07:59:16.431Z,15.90
2023-05-25T08:01:43.276Z,16.00
2023-05-25T08:04:10.355Z,16.10
2023-05-25T08:06:37.252Z,15.80
2023-05-25T08:09:04.954Z,15.90
2023-05-25T08:11:31.798Z,16.20
2023-05-25T08:14:00.108Z,15.90
2023-05-25T08:16:27.060Z,16.00
2023-05-25T08:18:53.878Z,16.20
2023-05-25T08:21:20.657Z,16.10
2023-05-25T08:23:47.929Z,16.00
2023-05-25T08:26:34.152Z,16.20
2023-05-25T08:29:02.516Z,15.90
2023-05-25T08:31:29.390Z,16.10
2023-05-25T08:33:56.327Z,16.00
2023-05-25T08:36:23.243Z,16.10
2023-05-25T08:38:50.046Z,16.60
2023-05-25T08:41:16.986Z,16.50
2023-05-25T08:43:43.934Z,16.20
2023-05-25T08:46:10.781Z,16.20
2023-05-25T08:48:42.517Z,16.10
2023-05-25T08:51:12.058Z,16.20
2023-05-25T08:53:41.128Z,16.20
2023-05-25T08:56:14.328Z,15.80
2023-05-25T08:58:58.118Z,15.70
2023-05-25T09:01:28.808Z,15.80
2023-05-25T09:03:57.231Z,15.60
2023-05-25T09:06:27.047Z,15.80
2023-05-25T09:08:54.980Z,15.90
2023-05-25T09:11:36.104Z,15.60
2023-05-25T09:14:07.930Z,15.60
2023-05-25T09:16:37.618Z,15.70
2023-05-25T09:19:04.521Z,15.60
2023-05-25T09:21:31.662Z,15.70
2023-05-25T09:24:00.288Z,15.70
2023-05-25T09:26:27.652Z,15.40
2023-05-25T09:28:54.486Z,15.40
2023-05-25T09:31:24.112Z,15.40
2023-05-25T09:33:55.532Z,15.50
2023-05-25T09:36:23.245Z,15.40
2023-05-25T09:38:53.857Z,15.40
2023-05-25T09:41:21.884Z,15.50
2023-05-25T09:44:02.040Z,15.50
2023-05-25T09:46:39.582Z,15.40
2023-05-25T09:49:08.912Z,15.50
2023-05-25T09:51:37.088Z,15.60
2023-05-25T09:54:05.058Z,15.70
2023-05-25T09:56:33.532Z,15.90
2023-05-25T09:59:01.274Z,15.80
2023-05-25T10:01:28.871Z,16.00
2023-05-25T10:04:05.223Z,15.90
2023-05-25T10:06:33.686Z,15.90
2023-05-25T10:09:01.448Z,15.80
2023-05-25T10:11:29.593Z,15.70
2023-05-25T10:13:56.862Z,15.40
2023-05-25T10:16:29.698Z,15.40
2023-05-25T10:19:22.146Z,15.40
2023-05-25T10:22:05.368Z,15.30
2023-05-25T10:24:39.010Z,15.40
2023-05-25T10:27:22.525Z,15.40
2023-05-25T10:29:54.318Z,15.10
2023-05-25T10:32:22.550Z,15.20
2023-05-25T10:34:52.262Z,15.50
2023-05-25T10:37:19.060Z,15.80
2023-05-25T10:39:46.639Z,15.80
2023-05-25T10:42:13.569Z,15.70
2023-05-25T10:44:43.985Z,15.70
2023-05-25T10:47:11.994Z,15.70
2023-05-25T10:49:58.975Z,15.70
2023-05-25T10:52:30.892Z,15.50
2023-05-25T10:55:01.700Z,15.50
2023-05-25T10:57:28.677Z,15.60
2023-05-25T11:00:06.694Z,15.60
2023-05-25T11:02:55.952Z,15.60
2023-05-25T11:05:26.202Z,15.90
2023-05-25T11:07:54.643Z,16.30
2023-05-25T11:10:44.352Z,16.20
2023-05-25T11:13:41.353Z,16.60
2023-05-25T11:16:22.289Z,16.60
2023-05-25T11:18:57.829Z,16.60
2023-05-25T11:21:27.545Z,16.00
2023-05-25T11:24:08.559Z,16.00
2023-05-25T11:26:35.937Z,16.10
2023-05-25T11:29:14.433Z,16.40
2023-05-25T11:31:43.694Z,16.60
2023-05-25T11:34:12.355Z,16.30
2023-05-25T11:36:39.642Z,16.80
2023-05-25T11:39:17.110Z,16.90
2023-05-25T11:41:52.382Z,16.70
2023-05-25T11:44:33.673Z,17.20
2023-05-25T11:47:09.023Z,17.20
2023-05-25T11:49:41.739Z,17.10
2023-05-25T11:52:08.928Z,17.40
2023-05-25T11:54:36.173Z,17.20
2023-05-25T11:57:03.842Z,17.10
2023-05-25T11:59:32.474Z,17.40
2023-05-25T12:02:04.116Z,17.50
2023-05-25T12:04:35.390Z,17.70
2023-05-25T12:07:07.047Z,17.60
2023-05-25T12:09:35.129Z,17.70
2023-05-25T12:12:04.307Z,17.00
2023-05-25T12:14:32.853Z,17.30
2023-05-25T12:16:59.908Z,17.10
2023-05-25T12:19:27.103Z,16.90
2023-05-25T12:21:54.097Z,16.90
2023-05-25T12:24:20.947Z,17.10
2023-05-25T12:27:01.441Z,16.60
2023-05-25T12:29:29.169Z,16.70
2023-05-25T12:32:04.005Z,16.80
2023-05-25T12:34:31.180Z,16.90
2023-05-25T12:36:57.973Z,17.40
2023-05-25T12:39:31.055Z,17.40
2023-05-25T12:41:59.439Z,17.50
2023-05-25T12:44:46.526Z,17.10
2023-05-25T12:47:22.412Z,17.10
2023-05-25T12:49:51.935Z,17.20
2023-05-25T12:52:38.185Z,17.00
2023-05-25T12:55:31.035Z,17.00
2023-05-25T12:58:06.969Z,17.30
2023-05-25T13:00:38.418Z,17.30
2023-05-25T13:03:09.621Z,17.30
2023-05-25T13:05:38.020Z,17.70
2023-05-25T13:08:06.143Z,17.70
2023-05-25T13:10:33.396Z,17.80
2023-05-25T13:13:01.017Z,17.90
2023-05-25T13:15:28.141Z,17.90
2023-05-25T13:17:58.333Z,17.90
2023-05-25T13:20:27.013Z,18.00
2023-05-25T13:22:55.876Z,17.50
2023-05-25T13:25:23.113Z,17.40
2023-05-25T13:27:52.579Z,17.40
2023-05-25T13:30:22.780Z,17.60
2023-05-25T13:32:52.068Z,17.70
2023-05-25T13:35:24.117Z,17.60
2023-05-25T13:37:51.383Z,17.50
2023-05-25T13:40:19.041Z,17.60
2023-05-25T13:42:45.965Z,17.60
2023-05-25T13:45:13.763Z,17.40
2023-05-25T13:47:43.791Z,17.30
2023-05-25T13:50:11.284Z,17.30
2023-05-25T13:52:38.079Z,17.40
2023-05-25T13:55:05.308Z,17.30
2023-05-25T13:57:32.051Z,17.30
2023-05-25T13:59:58.876Z,17.30
2023-05-25T14:02:25.783Z,17.50
2023-05-25T14:04:52.682Z,17.90
2023-05-25T14:07:19.467Z,17.60
2023-05-25T14:09:46.657Z,17.60
2023-05-25T14:12:14.357Z,18.00
2023-05-25T14:14:41.292Z,18.10
2023-05-25T14:17:08.102Z,18.50
2023-05-25T14:19:35.350Z,18.30
2023-05-25T14:24:32.030Z,19.10
2023-05-25T14:26:59.183Z,19.00
2023-05-25T14:29:26.043Z,18.90
2023-05-25T14:31:53.056Z,19.00
2023-05-25T14:34:19.967Z,18.90
2023-05-25T14:36:46.816Z,19.10
2023-05-25T14:39:16.410Z,19.00
2023-05-25T14:41:44.230Z,19.10
2023-05-25T14:44:11.238Z,19.30
2023-05-25T14:46:38.095Z,19.30
2023-05-25T14:49:04.994Z,19.20
2023-05-25T14:51:31.844Z,19.10
2023-05-25T14:54:00.454Z,19.10
2023-05-25T14:56:28.491Z,19.10
2023-05-25T14:58:55.255Z,19.30
2023-05-25T15:01:25.026Z,19.60
2023-05-25T15:03:52.579Z,19.40
2023-05-25T15:06:19.736Z,19.50
2023-05-25T15:08:46.801Z,19.50
2023-05-25T15:11:13.783Z,19.50
2023-05-25T15:13:41.026Z,19.20
2023-05-25T15:16:11.819Z,19.40
2023-05-25T15:18:38.972Z,19.60
2023-05-25T15:21:06.270Z,19.70
2023-05-25T15:23:33.346Z,19.80
2023-05-25T15:26:04.195Z,19.80
2023-05-25T15:28:31.554Z,19.80
2023-05-25T15:31:00.694Z,19.80
2023-05-25T15:33:43.678Z,19.80
2023-05-25T15:36:16.380Z,19.80
2023-05-25T15:38:44.426Z,19.60
2023-05-25T15:41:15.332Z,19.60
2023-05-25T15:43:42.258Z,19.60
2023-05-25T15:46:09.109Z,19.90
2023-05-25T15:48:35.960Z,20.00
2023-05-25T15:51:02.848Z,20.10
2023-05-25T15:53:30.389Z,20.10
2023-05-25T15:55:57.410Z,20.20
2023-05-25T15:58:24.228Z,20.10
2023-05-25T16:00:51.041Z,20.30
2023-05-25T16:03:17.976Z,20.40
2023-05-25T16:05:44.944Z,20.50
2023-05-25T16:08:13.927Z,20.50
2023-05-25T16:10:40.753Z,20.30
2023-05-25T16:13:07.612Z,20.10
2023-05-25T16:15:34.570Z,20.20
2023-05-25T16:18:01.398Z,20.20
2023-05-25T16:20:28.240Z,20.10
2023-05-25T16:22:55.062Z,20.20
2023-05-25T16:25:21.977Z,20.30
2023-05-25T16:27:48.802Z,20.30
2023-05-25T16:30:15.869Z,20.40
2023-05-25T16:32:42.750Z,20.40
2023-05-25T16:35:09.819Z,20.60
2023-05-25T16:37:36.571Z,20.70
2023-05-25T16:40:03.393Z,20.50
2023-05-25T16:42:30.223Z,20.40
2023-05-25T16:44:57.028Z,20.20
2023-05-25T16:47:23.785Z,20.40
2023-05-25T16:49:50.655Z,20.20
2023-05-25T16:52:18.166Z,20.50
2023-05-25T16:54:45.065Z,20.30
2023-05-25T16:57:12.141Z,20.30
2023-05-25T16:59:39.342Z,20.10
2023-05-25T17:02:06.617Z,20.10
2023-05-25T17:04:33.492Z,20.00
2023-05-25T17:07:00.364Z,20.00
2023-05-25T17:09:27.171Z,20.30
2023-05-25T17:11:54.229Z,20.60
2023-05-25T17:14:21.559Z,20.80
2023-05-25T17:16:48.385Z,20.90
2023-05-25T17:19:15.297Z,20.80
2023-05-25T17:21:42.460Z,20.80
2023-05-25T17:24:09.369Z,20.70
2023-05-25T17:26:36.217Z,20.80
2023-05-25T17:29:03.044Z,20.70
2023-05-25T17:31:29.973Z,20.70
2023-05-25T17:33:56.871Z,20.80
2023-05-25T17:36:23.947Z,20.80
2023-05-25T17:38:50.843Z,20.90
2023-05-25T17:41:17.641Z,21.00
2023-05-25T17:43:44.419Z,21.10
2023-05-25T17:46:11.359Z,21.30
2023-05-25T17:48:38.327Z,21.30
2023-05-25T17:51:05.330Z,21.40
2023-05-25T17:53:32.252Z,21.50
2023-05-25T17:55:59.296Z,21.70
2023-05-25T17:58:26.166Z,21.80
2023-05-25T18:00:53.085Z,21.80
2023-05-25T18:03:19.968Z,21.90
2023-05-25T18:05:47.109Z,21.70
2023-05-25T18:08:13.952Z,21.50
2023-05-25T18:10:40.803Z,21.30
2023-05-25T18:13:07.571Z,21.30
2023-05-25T18:15:34.561Z,21.40
2023-05-25T18:18:03.622Z,21.40
2023-05-25T18:20:30.442Z,21.40
2023-05-25T18:22:58.726Z,21.40
2023-05-25T18:25:26.148Z,21.40
2023-05-25T18:27:52.968Z,21.30
2023-05-25T18:30:19.763Z,21.30
2023-05-25T18:32:46.616Z,21.20
2023-05-25T18:35:13.682Z,21.20
2023-05-25T18:37:41.240Z,21.20
2023-05-25T18:40:08.769Z,21.20
2023-05-25T18:42:35.656Z,21.20
2023-05-25T18:45:02.695Z,21.10
2023-05-25T18:47:29.530Z,21.00
2023-05-25T18:49:56.495Z,21.00
2023-05-25T18:52:23.421Z,21.00
2023-05-25T18:54:50.459Z,21.00
2023-05-25T18:57:17.302Z,20.90
2023-05-25T18:59:44.115Z,20.80
2023-05-25T19:02:11.011Z,20.70
2023-05-25T19:04:37.965Z,20.70
2023-05-25T19:07:04.997Z,20.70
2023-05-25T19:09:31.932Z,20.60
2023-05-25T19:11:58.776Z,20.50
2023-05-25T19:14:25.713Z,20.50
2023-05-25T19:16:52.677Z,20.40
2023-05-25T19:19:19.567Z,20.30
2023-05-25T19:21:46.600Z,20.20
2023-05-25T19:24:13.373Z,20.30
2023-05-25T19:26:40.446Z,20.20
2023-05-25T19:29:07.291Z,20.20
2023-05-25T19:31:34.225Z,20.10
2023-05-25T19:34:01.138Z,20.00
2023-05-25T19:36:28.123Z,19.90
2023-05-25T19:38:54.977Z,19.80
2023-05-25T19:41:21.800Z,19.70
2023-05-25T19:43:48.637Z,19.60
2023-05-25T19:46:15.529Z,19.60
2023-05-25T19:48:42.585Z,19.50
2023-05-25T19:51:09.534Z,19.50
2023-05-25T19:53:36.326Z,19.50
2023-05-25T19:56:03.473Z,19.40
2023-05-25T19:58:30.506Z,19.40
2023-05-25T20:00:57.553Z,19.30
2023-05-25T20:03:24.404Z,19.30
2023-05-25T20:05:51.251Z,19.20
2023-05-25T20:08:18.050Z,19.40
2023-05-25T20:10:45.194Z,19.30
2023-05-25T20:15:39.406Z,18.90
2023-05-25T20:18:06.313Z,19.00
2023-05-25T20:20:33.147Z,18.90
2023-05-25T20:22:59.976Z,18.80
2023-05-25T20:25:26.763Z,18.80
2023-05-25T20:27:53.635Z,18.80
2023-05-25T20:30:20.771Z,18.70
2023-05-25T20:32:47.667Z,18.80
2023-05-25T20:35:17.356Z,18.50
2023-05-25T20:37:44.217Z,18.60
2023-05-25T20:40:11.210Z,18.50
2023-05-25T20:42:37.994Z,18.40
2023-05-25T20:45:05.321Z,18.30
2023-05-25T20:47:32.243Z,18.50
2023-05-25T20:49:59.127Z,18.40
2023-05-25T20:52:26.185Z,18.50
2023-05-25T20:54:53.063Z,18.70
2023-05-25T20:57:21.107Z,18.40
2023-05-25T20:59:48.826Z,18.50
2023-05-25T21:02:21.947Z,18.70
2023-05-25T21:04:48.802Z,18.60
2023-05-25T21:07:15.799Z,18.60
2023-05-25T21:09:42.623Z,18.50
2023-05-25T21:12:09.718Z,18.70
2023-05-25T21:14:36.853Z,18.20
2023-05-25T21:17:03.831Z,18.30
2023-05-25T21:19:31.043Z,18.60
2023-05-25T21:21:57.933Z,18.20
2023-05-25T21:24:24.754Z,18.20
2023-05-25T21:26:51.725Z,18.10
2023-05-25T21:29:18.629Z,18.20
2023-05-25T21:31:45.461Z,18.10
2023-05-25T21:34:12.325Z,17.90
2023-05-25T21:36:39.167Z,18.20
2023-05-25T21:39:06.028Z,18.20
2023-05-25T21:41:32.803Z,17.80
2023-05-25T21:43:59.550Z,17.90
2023-05-25T21:46:26.482Z,17.50
2023-05-25T21:48:53.280Z,17.80
2023-05-25T21:51:20.085Z,17.70
2023-05-25T21:53:46.861Z,17.80
2023-05-25T21:56:13.752Z,17.70
2023-05-25T21:58:40.646Z,17.80
2023-05-25T22:01:07.576Z,17.70
2023-05-25T22:03:34.543Z,17.80
2023-05-25T22:06:01.749Z,17.80
2023-05-25T22:08:28.619Z,18.00
2023-05-25T22:10:55.574Z,17.80
2023-05-25T22:13:22.378Z,17.70
2023-05-25T22:15:50.282Z,17.50
2023-05-25T22:18:17.088Z,17.50
2023-05-25T22:20:43.943Z,17.10
2023-05-25T22:23:12.081Z,17.20
2023-05-25T22:25:38.854Z,17.10
2023-05-25T22:28:05.758Z,17.30
2023-05-25T22:30:32.776Z,17.50
2023-05-25T22:32:59.691Z,17.40
2023-05-25T22:35:26.569Z,17.30
2023-05-25T22:37:53.401Z,17.20
2023-05-25T22:40:20.256Z,17.30
2023-05-25T22:42:50.298Z,17.00
2023-05-25T22:45:18.270Z,17.10
2023-05-25T22:47:45.120Z,17.40
2023-05-25T22:50:12.462Z,17.30
2023-05-25T22:52:41.220Z,17.10
2023-05-25T22:55:08.963Z,17.30
2023-05-25T22:57:36.222Z,17.00
2023-05-25T23:00:04.301Z,16.90
2023-05-25T23:02:31.196Z,17.00
2023-05-25T23:04:58.093Z,16.70
2023-05-25T23:07:24.942Z,16.60
2023-05-25T23:09:51.688Z,16.20
2023-05-25T23:12:18.471Z,16.40
2023-05-25T23:14:45.246Z,16.20
2023-05-25T23:17:12.026Z,16.40
2023-05-25T23:19:40.206Z,16.40
2023-05-25T23:22:07.067Z,16.00
2023-05-25T23:24:33.913Z,15.90
2023-05-25T23:27:00.793Z,16.00
2023-05-25T23:29:27.597Z,16.00
2023-05-25T23:31:54.527Z,16.10
2023-05-25T23:34:21.546Z,16.00
2023-05-25T23:36:48.648Z,16.20
2023-05-25T23:39:15.693Z,15.90
2023-05-25T23:41:42.460Z,16.00
2023-05-25T23:44:09.271Z,16.10
2023-05-25T23:46:36.245Z,16.10
2023-05-25T23:49:03.096Z,16.40
2023-05-25T23:51:30.779Z,16.50
2023-05-25T23:53:57.776Z,16.40
2023-05-25T23:56:24.558Z,16.40
2023-05-25T23:58:51.399Z,16.80
